Time;durP1;ratioP1;P1;durP2;ratioP2;P2;SDS_P1;SDS_P2;PMS_P1;PMS_P2;Temp;Humidity;BMP_temperature;BMP_pressure;BME280_temperature;BME280_humidity;BME280_pressure;Samples;Min_cycle;Max_cycle;Signal;HPM_P1;HPM_P2
2022/01/08 00:01:46;;;;;;;;;;;1.80;99.90;;;;;;5077976;28;19964;-79
2022/01/08 00:04:13;;;;;;;;;;;1.80;99.90;;;;;;5079083;28;19924;-79
2022/01/08 00:06:39;;;;;;;;;;;1.90;99.90;;;;;;5078661;28;20352;-79
2022/01/08 00:09:06;;;;;;;;;;;1.90;99.90;;;;;;5078685;28;19967;-80
2022/01/08 00:11:32;;;;;;;;;;;1.80;99.90;;;;;;5078908;28;19956;-79
2022/01/08 00:13:59;;;;;;;;;;;1.80;99.90;;;;;;5078832;28;19924;-80
2022/01/08 00:16:26;;;;;;;;;;;1.80;99.90;;;;;;5078903;28;19928;-80
2022/01/08 00:18:53;;;;;;;;;;;1.70;99.90;;;;;;5078773;28;19931;-80
2022/01/08 00:21:20;;;;;;;;;;;1.70;99.90;;;;;;5077373;28;20383;-78
2022/01/08 00:23:46;;;;;;;;;;;1.60;99.90;;;;;;5077011;28;19974;-79
2022/01/08 00:26:13;;;;;;;;;;;1.60;99.90;;;;;;5076737;28;19924;-77
2022/01/08 00:28:39;;;;;;;;;;;1.50;99.90;;;;;;5077150;28;20034;-78
2022/01/08 00:31:09;;;;;;;;;;;1.40;99.90;;;;;;5077879;28;19972;-78
2022/01/08 00:33:37;;;;;;;;;;;1.40;99.90;;;;;;5078723;28;19974;-78
2022/01/08 00:36:07;;;;;;;;;;;1.50;99.90;;;;;;5080177;28;19924;-80
2022/01/08 00:38:34;;;;;;;;;;;1.40;99.90;;;;;;5082994;28;19925;-79
2022/01/08 00:41:00;;;;;;;;;;;1.40;99.90;;;;;;5084826;28;20383;-78
2022/01/08 00:43:27;;;;;;;;;;;1.50;99.90;;;;;;5092382;28;19932;-78
2022/01/08 00:45:53;;;;;;;;;;;1.40;99.90;;;;;;5080782;28;19924;-80
2022/01/08 00:48:20;;;;;;;;;;;1.40;99.90;;;;;;5079897;28;19978;-80
2022/01/08 00:50:48;;;;;;;;;;;1.40;99.90;;;;;;5079193;28;19924;-79
2022/01/08 00:53:14;;;;;;;;;;;1.40;99.90;;;;;;5077493;28;19935;-79
2022/01/08 00:55:41;;;;;;;;;;;1.30;99.90;;;;;;5076865;28;20303;-79
2022/01/08 00:58:07;;;;;;;;;;;1.30;99.90;;;;;;5077963;28;19947;-79
2022/01/08 01:00:34;;;;;;;;;;;1.30;99.90;;;;;;5075938;28;19924;-77
2022/01/08 01:03:00;;;;;;;;;;;1.30;99.90;;;;;;5076123;28;19986;-78
2022/01/08 01:05:27;;;;;;;;;;;1.30;99.90;;;;;;5076707;28;20342;-78
2022/01/08 01:07:54;;;;;;;;;;;1.30;99.90;;;;;;5076094;28;19928;-78
2022/01/08 01:10:21;;;;;;;;;;;1.30;99.90;;;;;;5075680;28;19978;-78
2022/01/08 01:12:48;;;;;;;;;;;1.30;99.90;;;;;;5076421;28;19966;-77
2022/01/08 01:15:16;;;;;;;;;;;1.40;99.90;;;;;;5075801;28;19925;-78
2022/01/08 01:17:43;;;;;;;;;;;1.40;99.90;;;;;;5075966;28;19974;-79
2022/01/08 01:20:11;;;;;;;;;;;1.40;99.90;;;;;;5076007;28;19931;-79
2022/01/08 01:22:46;;;;;;;;;;;1.50;99.90;;;;;;5075643;28;20275;-79
2022/01/08 01:25:18;;;;;;;;;;;1.40;99.90;;;;;;5076011;28;19925;-78
2022/01/08 01:30:53;;;;;;;;;;;1.40;99.90;;;;;;5074488;28;19920;-79
2022/01/08 01:42:06;;;;;;;;;;;1.40;99.90;;;;;;5063394;28;19927;-78
2022/01/08 01:47:18;;;;;;;;;;;1.40;99.90;;;;;;5077368;28;20001;-79
2022/01/08 01:49:45;;;;;;;;;;;1.40;99.90;;;;;;5076665;28;20439;-79
2022/01/08 01:52:13;;;;;;;;;;;1.40;99.90;;;;;;5077379;28;19924;-78
2022/01/08 01:54:40;;;;;;;;;;;1.40;99.90;;;;;;5076086;28;19931;-78
2022/01/08 01:57:09;;;;;;;;;;;1.40;99.90;;;;;;5075871;28;19970;-78
2022/01/08 01:59:36;;;;;;;;;;;1.40;99.90;;;;;;5075908;28;19929;-80
2022/01/08 02:02:03;;;;;;;;;;;1.40;99.90;;;;;;5076948;28;19959;-78
2022/01/08 02:04:30;;;;;;;;;;;1.40;99.90;;;;;;5076575;28;19967;-78
2022/01/08 02:06:56;;;;;;;;;;;1.50;99.90;;;;;;5081593;28;19925;-78
2022/01/08 02:09:23;;;;;;;;;;;1.50;99.90;;;;;;5099194;28;19921;-80
2022/01/08 02:11:56;;;;;;;;;;;1.50;99.90;;;;;;5098757;28;19908;-79
2022/01/08 02:14:23;;;;;;;;;;;1.50;99.90;;;;;;5099554;28;19936;-79
2022/01/08 02:16:50;;;;;;;;;;;1.60;99.90;;;;;;5099257;28;19912;-79
2022/01/08 02:19:16;;;;;;;;;;;1.60;99.90;;;;;;5098612;28;19931;-79
2022/01/08 02:21:47;;;;;;;;;;;1.60;99.90;;;;;;5098674;28;19912;-79
2022/01/08 02:24:13;;;;;;;;;;;1.60;99.90;;;;;;5098870;28;19912;-79
2022/01/08 02:26:41;;;;;;;;;;;1.60;99.90;;;;;;5084754;28;19925;-78
2022/01/08 02:29:10;;;;;;;;;;;1.50;99.90;;;;;;5080177;28;19980;-78
2022/01/08 02:31:36;;;;;;;;;;;1.50;99.90;;;;;;5078409;28;19924;-78
2022/01/08 02:34:04;;;;;;;;;;;1.50;99.90;;;;;;5076714;28;19963;-78
2022/01/08 02:36:31;;;;;;;;;;;1.40;99.90;;;;;;5078938;28;19932;-78
2022/01/08 02:38:59;;;;;;;;;;;1.50;99.90;;;;;;5077940;28;19925;-78
2022/01/08 02:41:27;;;;;;;;;;;1.50;99.90;;;;;;5076236;28;19932;-78
2022/01/08 02:43:53;;;;;;;;;;;1.60;99.90;;;;;;5075807;28;19924;-78
2022/01/08 02:46:20;;;;;;;;;;;1.60;99.90;;;;;;5082346;28;19925;-78
2022/01/08 02:48:46;;;;;;;;;;;1.70;99.90;;;;;;5092569;22;19924;-79
2022/01/08 02:51:13;;;;;;;;;;;1.70;99.90;;;;;;5076795;28;19959;-79
2022/01/08 02:53:39;;;;;;;;;;;1.60;99.90;;;;;;5077101;28;20015;-80
2022/01/08 02:56:07;;;;;;;;;;;1.70;99.90;;;;;;5077402;28;20058;-79
2022/01/08 02:58:34;;;;;;;;;;;1.70;99.90;;;;;;5078006;28;19968;-79
2022/01/08 03:01:00;;;;;;;;;;;1.70;99.90;;;;;;5077436;28;19963;-79
2022/01/08 03:03:27;;;;;;;;;;;1.70;99.90;;;;;;5077452;28;19947;-80
2022/01/08 03:05:53;;;;;;;;;;;1.80;99.90;;;;;;5077078;28;19975;-79
2022/01/08 03:08:20;;;;;;;;;;;1.80;99.90;;;;;;5077711;28;19925;-79
2022/01/08 03:10:46;;;;;;;;;;;1.80;99.90;;;;;;5077551;28;19924;-79
2022/01/08 03:13:14;;;;;;;;;;;1.80;99.90;;;;;;5078766;28;19966;-79
2022/01/08 03:15:41;;;;;;;;;;;1.80;99.90;;;;;;5083582;28;19925;-78
2022/01/08 03:18:07;;;;;;;;;;;1.80;99.90;;;;;;5086449;28;20020;-77
2022/01/08 03:20:35;;;;;;;;;;;1.80;99.90;;;;;;5085795;28;19925;-79
2022/01/08 03:23:04;;;;;;;;;;;1.80;99.90;;;;;;5082466;28;19924;-79
2022/01/08 03:25:31;;;;;;;;;;;1.80;99.90;;;;;;5082033;28;19932;-79
2022/01/08 03:27:57;;;;;;;;;;;1.90;99.90;;;;;;5081778;28;19931;-79
2022/01/08 03:30:28;;;;;;;;;;;1.90;99.90;;;;;;5087806;28;19936;-78
2022/01/08 03:32:54;;;;;;;;;;;1.90;99.90;;;;;;5092088;28;19964;-78
2022/01/08 03:35:20;;;;;;;;;;;1.90;99.90;;;;;;5082714;28;19959;-79
2022/01/08 03:37:47;;;;;;;;;;;1.90;99.90;;;;;;5080844;28;19960;-79
2022/01/08 03:40:14;;;;;;;;;;;1.90;99.90;;;;;;5080105;28;19943;-79
2022/01/08 03:42:41;;;;;;;;;;;1.80;99.90;;;;;;5081567;28;19963;-80
2022/01/08 03:45:07;;;;;;;;;;;1.80;99.90;;;;;;5080949;28;19952;-78
2022/01/08 03:47:54;;;;;;;;;;;1.80;99.90;;;;;;5080685;28;19942;-78
2022/01/08 03:50:21;;;;;;;;;;;1.80;99.90;;;;;;5088929;28;19944;-78
2022/01/08 03:52:47;;;;;;;;;;;1.80;99.90;;;;;;5091833;28;19924;-78
2022/01/08 03:55:14;;;;;;;;;;;1.70;99.90;;;;;;5092409;28;19935;-78
2022/01/08 03:57:40;;;;;;;;;;;1.80;99.90;;;;;;5091238;28;19924;-78
2022/01/08 04:00:07;;;;;;;;;;;1.80;99.90;;;;;;5096945;28;19909;-78
2022/01/08 04:02:35;;;;;;;;;;;1.70;99.90;;;;;;5097917;28;19939;-78
2022/01/08 04:05:02;;;;;;;;;;;1.70;99.90;;;;;;5096008;28;19924;-78
2022/01/08 04:07:28;;;;;;;;;;;1.60;99.90;;;;;;5083499;28;19924;-79
2022/01/08 04:09:54;;;;;;;;;;;1.60;99.90;;;;;;5083680;28;19987;-80
2022/01/08 04:12:31;;;;;;;;;;;1.60;99.90;;;;;;5082867;28;19931;-79
2022/01/08 04:15:06;;;;;;;;;;;1.60;99.90;;;;;;5081673;28;20019;-79
2022/01/08 04:17:32;;;;;;;;;;;1.60;99.90;;;;;;5081393;28;20349;-80
2022/01/08 04:20:00;;;;;;;;;;;1.60;99.90;;;;;;5080030;28;19931;-80
2022/01/08 04:22:28;;;;;;;;;;;1.60;99.90;;;;;;5080951;28;19967;-80
2022/01/08 04:24:56;;;;;;;;;;;1.60;99.90;;;;;;5080434;28;20019;-80
2022/01/08 04:27:22;;;;;;;;;;;1.60;99.90;;;;;;5080051;28;19924;-79
2022/01/08 04:29:49;;;;;;;;;;;1.60;99.90;;;;;;5080071;28;19971;-80
2022/01/08 04:32:15;;;;;;;;;;;1.60;99.90;;;;;;5080775;28;19924;-80
2022/01/08 04:34:41;;;;;;;;;;;1.60;99.90;;;;;;5087481;28;19932;-79
2022/01/08 04:37:09;;;;;;;;;;;1.60;99.90;;;;;;5081515;28;20038;-79
2022/01/08 04:39:36;;;;;;;;;;;1.60;99.90;;;;;;5087468;28;19956;-78
2022/01/08 04:42:02;;;;;;;;;;;1.60;99.90;;;;;;5090776;28;19925;-78
2022/01/08 04:44:29;;;;;;;;;;;1.60;99.90;;;;;;5090803;28;19932;-78
2022/01/08 04:46:55;;;;;;;;;;;1.60;99.90;;;;;;5089813;28;19924;-78
2022/01/08 04:49:21;;;;;;;;;;;1.70;99.90;;;;;;5090193;28;19931;-78
2022/01/08 04:51:48;;;;;;;;;;;1.70;99.90;;;;;;5085844;28;19925;-79
2022/01/08 04:54:16;;;;;;;;;;;1.80;99.90;;;;;;5082593;28;19928;-79
2022/01/08 04:56:42;;;;;;;;;;;1.70;99.90;;;;;;5080947;28;19925;-80
2022/01/08 04:59:09;;;;;;;;;;;1.80;99.90;;;;;;5081422;28;19925;-79
2022/01/08 05:01:35;;;;;;;;;;;1.70;99.90;;;;;;5080896;28;19925;-80
2022/01/08 05:04:02;;;;;;;;;;;1.80;99.90;;;;;;5080378;28;20004;-80
2022/01/08 05:06:28;;;;;;;;;;;1.80;99.90;;;;;;5079906;28;20432;-80
2022/01/08 05:08:55;;;;;;;;;;;1.80;99.90;;;;;;5080099;28;19925;-80
2022/01/08 05:11:23;;;;;;;;;;;1.80;99.90;;;;;;5083511;28;19944;-79
2022/01/08 05:13:50;;;;;;;;;;;1.90;99.90;;;;;;5089562;28;19924;-79
2022/01/08 05:16:17;;;;;;;;;;;1.80;99.90;;;;;;5088645;28;19925;-79
2022/01/08 05:18:43;;;;;;;;;;;1.90;99.90;;;;;;5088794;28;19928;-78
2022/01/08 05:21:17;;;;;;;;;;;1.90;99.90;;;;;;5090708;28;19924;-79
2022/01/08 05:23:43;;;;;;;;;;;1.90;99.90;;;;;;5088138;28;19928;-79
2022/01/08 05:26:10;;;;;;;;;;;1.80;99.90;;;;;;5080011;28;19963;-79
2022/01/08 05:28:38;;;;;;;;;;;1.80;99.90;;;;;;5079919;28;19979;-80
2022/01/08 05:31:05;;;;;;;;;;;1.90;99.90;;;;;;5079445;28;19971;-80
2022/01/08 05:33:31;;;;;;;;;;;1.80;99.90;;;;;;5078906;28;19924;-78
2022/01/08 05:35:57;;;;;;;;;;;1.90;99.90;;;;;;5081940;28;19932;-78
2022/01/08 05:38:24;;;;;;;;;;;1.90;99.90;;;;;;5081643;28;19967;-77
2022/01/08 05:40:50;;;;;;;;;;;1.80;99.90;;;;;;5083171;28;19925;-78
2022/01/08 05:43:17;;;;;;;;;;;1.80;99.90;;;;;;5080516;28;19974;-79
2022/01/08 05:45:45;;;;;;;;;;;1.80;99.90;;;;;;5079148;28;19985;-79
2022/01/08 05:48:12;;;;;;;;;;;1.70;99.90;;;;;;5079943;28;19924;-79
2022/01/08 05:50:39;;;;;;;;;;;1.70;99.90;;;;;;5078455;28;19924;-80
2022/01/08 05:53:05;;;;;;;;;;;1.60;99.90;;;;;;5079318;28;19959;-80
2022/01/08 05:55:32;;;;;;;;;;;1.70;99.90;;;;;;5079797;28;19970;-80
2022/01/08 05:57:58;;;;;;;;;;;1.60;99.90;;;;;;5079480;28;19924;-79
2022/01/08 06:00:25;;;;;;;;;;;1.70;99.90;;;;;;5079008;28;19924;-80
2022/01/08 06:02:53;;;;;;;;;;;1.60;99.90;;;;;;5078736;28;19986;-80
2022/01/08 06:05:19;;;;;;;;;;;1.60;99.90;;;;;;5078132;28;20377;-80
2022/01/08 06:07:45;;;;;;;;;;;1.60;99.90;;;;;;5079151;28;20423;-80
2022/01/08 06:10:12;;;;;;;;;;;1.50;99.90;;;;;;5079708;28;19924;-78
2022/01/08 06:12:38;;;;;;;;;;;1.50;99.90;;;;;;5079507;28;19925;-80
2022/01/08 06:15:05;;;;;;;;;;;1.50;99.90;;;;;;5078688;28;19963;-79
2022/01/08 06:17:32;;;;;;;;;;;1.50;99.90;;;;;;5078320;28;19959;-79
2022/01/08 06:19:59;;;;;;;;;;;1.50;99.90;;;;;;5078393;28;20362;-79
2022/01/08 06:22:26;;;;;;;;;;;1.60;99.90;;;;;;5078165;28;19972;-79
2022/01/08 06:24:52;;;;;;;;;;;1.60;99.90;;;;;;5078083;28;19931;-78
2022/01/08 06:27:19;;;;;;;;;;;1.70;99.90;;;;;;5078945;28;19924;-79
2022/01/08 06:29:46;;;;;;;;;;;1.70;99.90;;;;;;5078527;28;20435;-79
2022/01/08 06:32:14;;;;;;;;;;;1.80;99.90;;;;;;5086854;28;19925;-77
2022/01/08 06:34:40;;;;;;;;;;;1.80;99.90;;;;;;5079627;28;20375;-79
2022/01/08 06:37:08;;;;;;;;;;;1.70;99.90;;;;;;5079452;28;19966;-80
2022/01/08 06:39:35;;;;;;;;;;;1.80;99.90;;;;;;5079089;28;19972;-80
2022/01/08 06:42:01;;;;;;;;;;;1.70;99.90;;;;;;5079871;28;20430;-79
2022/01/08 06:44:28;;;;;;;;;;;1.80;99.90;;;;;;5080762;28;19924;-80
2022/01/08 06:46:54;;;;;;;;;;;1.80;99.90;;;;;;5078904;28;19971;-80
2022/01/08 06:49:21;;;;;;;;;;;1.70;99.90;;;;;;5078286;28;19967;-79
2022/01/08 06:51:47;;;;;;;;;;;1.80;99.90;;;;;;5084065;28;19932;-80
2022/01/08 06:54:15;;;;;;;;;;;1.70;99.90;;;;;;5082372;28;19931;-79
2022/01/08 06:56:41;;;;;;;;;;;1.70;99.90;;;;;;5082049;28;19986;-80
2022/01/08 06:59:08;;;;;;;;;;;1.70;99.90;;;;;;5081869;28;19976;-79
2022/01/08 07:01:34;;;;;;;;;;;1.80;99.90;;;;;;5081887;28;19924;-79
2022/01/08 07:04:01;;;;;;;;;;;1.80;99.90;;;;;;5082611;28;19968;-79
2022/01/08 07:06:28;;;;;;;;;;;1.80;99.90;;;;;;5082717;28;20345;-79
2022/01/08 07:08:54;;;;;;;;;;;1.80;99.90;;;;;;5082811;28;20023;-79
2022/01/08 07:11:22;;;;;;;;;;;1.80;99.90;;;;;;5082868;28;19960;-80
2022/01/08 07:13:49;;;;;;;;;;;1.80;99.90;;;;;;5082751;28;19959;-80
2022/01/08 07:16:15;;;;;;;;;;;1.90;99.90;;;;;;5083205;28;19924;-80
2022/01/08 07:18:42;;;;;;;;;;;1.90;99.90;;;;;;5082530;28;19982;-79
2022/01/08 07:21:08;;;;;;;;;;;1.90;99.90;;;;;;5081296;28;19967;-79
2022/01/08 07:23:34;;;;;;;;;;;1.90;99.90;;;;;;5082475;28;19928;-80
2022/01/08 07:26:01;;;;;;;;;;;1.80;99.90;;;;;;5082934;28;19994;-80
2022/01/08 07:28:29;;;;;;;;;;;1.80;99.90;;;;;;5081330;28;19924;-80
2022/01/08 07:30:55;;;;;;;;;;;1.80;99.90;;;;;;5083369;28;19924;-79
2022/01/08 07:33:22;;;;;;;;;;;1.70;99.90;;;;;;5084934;28;19966;-78
2022/01/08 07:35:48;;;;;;;;;;;1.70;99.90;;;;;;5083274;28;19925;-80
2022/01/08 07:38:15;;;;;;;;;;;1.80;99.90;;;;;;5082374;28;19924;-80
2022/01/08 07:40:41;;;;;;;;;;;1.80;99.90;;;;;;5082870;28;19925;-79
2022/01/08 07:43:08;;;;;;;;;;;1.80;99.90;;;;;;5081731;28;19950;-80
2022/01/08 07:45:35;;;;;;;;;;;1.70;99.90;;;;;;5081815;28;20371;-81
2022/01/08 07:48:02;;;;;;;;;;;1.70;99.90;;;;;;5081234;28;19925;-79
2022/01/08 07:50:28;;;;;;;;;;;1.70;99.90;;;;;;5080371;28;19963;-79
2022/01/08 07:52:55;;;;;;;;;;;1.60;99.90;;;;;;5080825;28;19924;-79
2022/01/08 07:55:21;;;;;;;;;;;1.60;99.90;;;;;;5082205;28;20054;-77
2022/01/08 07:57:48;;;;;;;;;;;1.60;99.90;;;;;;5083788;28;19972;-77
2022/01/08 08:00:15;;;;;;;;;;;1.70;99.90;;;;;;5086271;28;19946;-78
2022/01/08 08:02:42;;;;;;;;;;;1.70;99.90;;;;;;5078829;28;19924;-78
2022/01/08 08:05:09;;;;;;;;;;;1.70;99.90;;;;;;5081832;28;19924;-79
2022/01/08 08:07:37;;;;;;;;;;;1.70;99.90;;;;;;5082401;28;19968;-79
2022/01/08 08:10:04;;;;;;;;;;;1.70;99.90;;;;;;5087420;28;20356;-78
2022/01/08 08:12:30;;;;;;;;;;;1.70;99.90;;;;;;5084687;28;20307;-79
2022/01/08 08:14:57;;;;;;;;;;;1.70;99.90;;;;;;5081628;28;20020;-79
2022/01/08 08:17:23;;;;;;;;;;;1.70;99.90;;;;;;5080855;28;19925;-81
2022/01/08 08:19:51;;;;;;;;;;;1.70;99.90;;;;;;5080510;28;20022;-80
2022/01/08 08:22:18;;;;;;;;;;;1.80;99.90;;;;;;5081082;28;19960;-79
2022/01/08 08:24:44;;;;;;;;;;;1.70;99.90;;;;;;5081097;28;19963;-78
2022/01/08 08:27:10;;;;;;;;;;;1.70;99.90;;;;;;5080783;28;20057;-79
2022/01/08 08:29:40;;;;;;;;;;;1.70;99.90;;;;;;5083883;28;19955;-79
2022/01/08 08:32:07;;;;;;;;;;;1.70;99.90;;;;;;5081724;28;19972;-79
2022/01/08 08:34:33;;;;;;;;;;;1.70;99.90;;;;;;5081351;28;19972;-79
2022/01/08 08:37:01;;;;;;;;;;;1.70;99.90;;;;;;5080575;28;19968;-79
2022/01/08 08:39:28;;;;;;;;;;;1.80;99.90;;;;;;5080515;28;19934;-79
2022/01/08 08:41:54;;;;;;;;;;;1.80;99.90;;;;;;5081207;28;19925;-79
2022/01/08 08:44:21;;;;;;;;;;;1.80;99.90;;;;;;5081782;28;19967;-77
2022/01/08 08:46:47;;;;;;;;;;;1.80;99.90;;;;;;5084772;28;19931;-79
2022/01/08 08:49:14;;;;;;;;;;;1.80;99.90;;;;;;5087907;28;20379;-78
2022/01/08 08:51:40;;;;;;;;;;;1.80;99.90;;;;;;5089212;28;19944;-78
2022/01/08 08:54:08;;;;;;;;;;;1.80;99.90;;;;;;5085384;28;19932;-80
2022/01/08 08:56:35;;;;;;;;;;;1.80;99.90;;;;;;5085633;28;20343;-79
2022/01/08 08:59:01;;;;;;;;;;;1.70;99.90;;;;;;5085154;28;19952;-80
2022/01/08 09:01:28;;;;;;;;;;;1.70;99.90;;;;;;5080303;28;19931;-81
2022/01/08 09:03:54;;;;;;;;;;;1.80;99.90;;;;;;5078997;28;19924;-80
2022/01/08 09:06:21;;;;;;;;;;;1.90;99.90;;;;;;5079502;28;19928;-80
2022/01/08 09:08:47;;;;;;;;;;;1.90;99.90;;;;;;5082377;28;19968;-79
2022/01/08 09:11:15;;;;;;;;;;;1.90;99.90;;;;;;5082373;28;19924;-79
2022/01/08 09:13:42;;;;;;;;;;;1.90;99.90;;;;;;5079154;28;19925;-79
2022/01/08 09:16:08;;;;;;;;;;;1.90;99.90;;;;;;5080033;28;19924;-79
2022/01/08 09:18:35;;;;;;;;;;;1.90;99.90;;;;;;5079116;28;20011;-79
2022/01/08 09:21:02;;;;;;;;;;;1.90;99.90;;;;;;5078556;28;20418;-78
2022/01/08 09:23:28;;;;;;;;;;;1.90;99.90;;;;;;5078563;28;19931;-78
2022/01/08 09:25:55;;;;;;;;;;;1.90;99.90;;;;;;5078758;28;19956;-80
2022/01/08 09:28:23;;;;;;;;;;;2.00;99.90;;;;;;5078813;28;19976;-80
2022/01/08 09:30:49;;;;;;;;;;;1.90;99.90;;;;;;5080563;28;19967;-80
2022/01/08 09:33:16;;;;;;;;;;;1.90;99.90;;;;;;5079635;28;19931;-79
2022/01/08 09:35:42;;;;;;;;;;;1.90;99.90;;;;;;5079123;28;19986;-79
2022/01/08 09:38:09;;;;;;;;;;;1.80;99.90;;;;;;5078649;28;19964;-79
2022/01/08 09:40:35;;;;;;;;;;;1.80;99.90;;;;;;5078615;28;20022;-80
2022/01/08 09:43:03;;;;;;;;;;;1.90;99.90;;;;;;5078608;28;19966;-80
2022/01/08 09:45:31;;;;;;;;;;;1.90;99.90;;;;;;5079168;28;20298;-79
2022/01/08 09:47:58;;;;;;;;;;;1.90;99.90;;;;;;5079920;28;19986;-79
2022/01/08 09:50:24;;;;;;;;;;;1.90;99.90;;;;;;5079452;28;19979;-80
2022/01/08 09:52:53;;;;;;;;;;;1.80;99.90;;;;;;5077619;28;20000;-80
2022/01/08 09:55:20;;;;;;;;;;;1.80;99.90;;;;;;5078816;28;19924;-79
2022/01/08 09:57:47;;;;;;;;;;;1.80;99.90;;;;;;5078677;28;19974;-79
2022/01/08 10:00:14;;;;;;;;;;;1.90;99.90;;;;;;5080899;28;19975;-79
2022/01/08 10:02:44;;;;;;;;;;;1.90;99.90;;;;;;5078699;28;19931;-79
2022/01/08 10:05:11;;;;;;;;;;;1.90;99.90;;;;;;5078130;28;20379;-80
2022/01/08 10:07:38;;;;;;;;;;;1.90;99.90;;;;;;5077937;28;19932;-80
2022/01/08 10:10:10;;;;;;;;;;;1.90;99.90;;;;;;5078650;28;19967;-79
2022/01/08 10:12:41;;;;;;;;;;;1.90;99.90;;;;;;5078770;28;20007;-78
2022/01/08 10:17:53;;;;;;;;;;;1.80;99.90;;;;;;5079495;28;19972;-80
2022/01/08 10:20:33;;;;;;;;;;;1.70;99.90;;;;;;5081931;28;19924;-78
2022/01/08 10:23:11;;;;;;;;;;;1.70;99.90;;;;;;5087714;28;19939;-78
2022/01/08 10:25:38;;;;;;;;;;;1.70;99.90;;;;;;5086308;28;19928;-78
2022/01/08 10:28:04;;;;;;;;;;;1.70;99.90;;;;;;5084764;28;19924;-78
2022/01/08 10:30:31;;;;;;;;;;;1.70;99.90;;;;;;5081221;28;19968;-78
2022/01/08 10:32:59;;;;;;;;;;;1.70;99.90;;;;;;5079324;28;20355;-79
2022/01/08 10:35:46;;;;;;;;;;;1.70;99.90;;;;;;5079101;28;21358;-80
2022/01/08 10:38:12;;;;;;;;;;;1.70;99.90;;;;;;5078551;28;19963;-80
2022/01/08 10:40:39;;;;;;;;;;;1.70;99.90;;;;;;5078382;28;19925;-79
2022/01/08 10:43:18;;;;;;;;;;;1.70;99.90;;;;;;5078306;28;19924;-79
2022/01/08 10:45:45;;;;;;;;;;;1.70;99.90;;;;;;5077957;28;19989;-79
2022/01/08 10:48:13;;;;;;;;;;;1.70;99.90;;;;;;5077632;28;19932;-80
2022/01/08 10:50:39;;;;;;;;;;;1.70;99.90;;;;;;5077560;28;19968;-80
2022/01/08 10:53:05;;;;;;;;;;;1.70;99.90;;;;;;5077760;28;19966;-79
2022/01/08 10:55:32;;;;;;;;;;;1.80;99.90;;;;;;5077012;28;19967;-79
2022/01/08 10:57:59;;;;;;;;;;;1.80;99.90;;;;;;5076797;28;20049;-79
2022/01/08 11:00:30;;;;;;;;;;;1.90;99.90;;;;;;5076741;28;19972;-79
2022/01/08 11:02:57;;;;;;;;;;;1.90;99.90;;;;;;5076949;28;19925;-77
2022/01/08 11:05:25;;;;;;;;;;;1.90;99.90;;;;;;5078112;28;19974;-79
2022/01/08 11:07:51;;;;;;;;;;;2.00;99.90;;;;;;5076648;28;20004;-81
2022/01/08 11:10:20;;;;;;;;;;;2.00;99.90;;;;;;5076887;28;19976;-80
2022/01/08 11:12:47;;;;;;;;;;;2.10;99.90;;;;;;5077459;28;19925;-80
2022/01/08 11:15:35;;;;;;;;;;;2.10;99.90;;;;;;5078067;28;19964;-80
2022/01/08 11:18:01;;;;;;;;;;;2.20;99.90;;;;;;5078086;28;20359;-79
2022/01/08 11:20:30;;;;;;;;;;;2.20;99.90;;;;;;5078617;28;20402;-80
2022/01/08 11:22:57;;;;;;;;;;;2.30;99.90;;;;;;5083043;28;19932;-78
2022/01/08 11:25:25;;;;;;;;;;;2.30;99.90;;;;;;5088574;28;19925;-78
2022/01/08 11:27:53;;;;;;;;;;;2.40;99.90;;;;;;5088235;28;19933;-78
2022/01/08 11:30:21;;;;;;;;;;;2.50;99.90;;;;;;5084644;28;19925;-78
2022/01/08 11:32:48;;;;;;;;;;;2.40;99.90;;;;;;5079867;28;19928;-78
2022/01/08 11:35:15;;;;;;;;;;;2.50;99.90;;;;;;5079885;28;19924;-78
2022/01/08 11:37:46;;;;;;;;;;;2.60;99.90;;;;;;5083192;28;19931;-79
2022/01/08 11:40:14;;;;;;;;;;;2.80;99.90;;;;;;5087905;28;19924;-79
2022/01/08 11:42:40;;;;;;;;;;;2.90;99.90;;;;;;5086101;28;19932;-78
2022/01/08 11:45:09;;;;;;;;;;;3.00;99.90;;;;;;5085567;28;19936;-78
2022/01/08 11:47:35;;;;;;;;;;;3.10;99.90;;;;;;5086262;28;19924;-78
2022/01/08 11:50:04;;;;;;;;;;;3.00;99.90;;;;;;5081842;28;19925;-78
2022/01/08 11:52:31;;;;;;;;;;;3.00;99.90;;;;;;5081356;28;19983;-79
2022/01/08 11:54:58;;;;;;;;;;;3.10;99.90;;;;;;5080745;28;19929;-78
2022/01/08 11:57:26;;;;;;;;;;;3.20;99.90;;;;;;5080526;28;19968;-79
2022/01/08 11:59:56;;;;;;;;;;;3.20;99.90;;;;;;5080164;28;19924;-80
2022/01/08 12:02:34;;;;;;;;;;;3.20;99.90;;;;;;5080125;28;19932;-78
2022/01/08 12:05:00;;;;;;;;;;;3.20;99.90;;;;;;5081301;28;19924;-79
2022/01/08 12:07:31;;;;;;;;;;;3.10;99.90;;;;;;5079175;28;20463;-79
2022/01/08 12:10:10;;;;;;;;;;;3.10;99.90;;;;;;5079322;28;19978;-79
2022/01/08 12:12:47;;;;;;;;;;;3.30;99.90;;;;;;5083744;28;19943;-79
2022/01/08 12:15:14;;;;;;;;;;;3.20;99.90;;;;;;5098098;28;19935;-79
2022/01/08 12:17:53;;;;;;;;;;;3.10;99.90;;;;;;5093547;28;20375;-80
2022/01/08 12:20:34;;;;;;;;;;;3.20;99.90;;;;;;5081656;28;20005;-80
2022/01/08 12:23:15;;;;;;;;;;;3.10;99.90;;;;;;5080980;28;19956;-80
2022/01/08 12:25:43;;;;;;;;;;;3.20;99.90;;;;;;5080381;28;19976;-80
2022/01/08 12:28:30;;;;;;;;;;;3.20;99.90;;;;;;5082610;28;19925;-79
2022/01/08 12:31:18;;;;;;;;;;;3.30;99.90;;;;;;5081425;28;19960;-80
2022/01/08 12:33:44;;;;;;;;;;;3.20;99.90;;;;;;5080720;28;19931;-78
2022/01/08 12:36:28;;;;;;;;;;;3.10;99.90;;;;;;5080198;28;19964;-80
2022/01/08 12:39:01;;;;;;;;;;;3.10;99.90;;;;;;5081174;28;19928;-80
2022/01/08 12:41:28;;;;;;;;;;;3.10;99.90;;;;;;5082710;28;20358;-78
2022/01/08 12:43:55;;;;;;;;;;;3.10;99.90;;;;;;5082379;28;20399;-80
2022/01/08 12:46:24;;;;;;;;;;;3.10;99.90;;;;;;5081474;28;19993;-80
2022/01/08 12:49:10;;;;;;;;;;;3.10;99.90;;;;;;5081840;28;19925;-78
2022/01/08 12:51:43;;;;;;;;;;;3.10;99.90;;;;;;5086983;28;19964;-78
2022/01/08 12:54:10;;;;;;;;;;;3.00;99.90;;;;;;5086684;28;20403;-78
2022/01/08 12:56:45;;;;;;;;;;;3.10;99.90;;;;;;5090374;28;19931;-78
2022/01/08 12:59:12;;;;;;;;;;;3.10;99.90;;;;;;5091530;28;19925;-80
2022/01/08 13:01:40;;;;;;;;;;;3.10;99.90;;;;;;5083089;28;19971;-80
2022/01/08 13:04:14;;;;;;;;;;;3.10;99.90;;;;;;5083178;28;19980;-80
2022/01/08 13:06:41;;;;;;;;;;;3.10;99.90;;;;;;5080522;28;19972;-80
2022/01/08 13:09:08;;;;;;;;;;;3.10;99.90;;;;;;5080807;28;19963;-80
2022/01/08 13:11:36;;;;;;;;;;;3.10;99.90;;;;;;5081043;28;19968;-79
2022/01/08 13:14:03;;;;;;;;;;;3.10;99.90;;;;;;5091515;28;19924;-78
2022/01/08 13:16:31;;;;;;;;;;;3.10;99.90;;;;;;5088879;28;19925;-77
2022/01/08 13:19:01;;;;;;;;;;;3.10;99.90;;;;;;5090786;28;19929;-78
2022/01/08 13:21:29;;;;;;;;;;;3.10;99.90;;;;;;5089182;28;20338;-77
2022/01/08 13:23:57;;;;;;;;;;;3.20;99.90;;;;;;5089392;28;19964;-79
2022/01/08 13:26:34;;;;;;;;;;;3.20;99.90;;;;;;5089370;28;19924;-78
2022/01/08 13:29:01;;;;;;;;;;;3.30;99.90;;;;;;5084755;28;19925;-79
2022/01/08 13:31:44;;;;;;;;;;;3.40;99.90;;;;;;5079918;28;19925;-79
2022/01/08 13:34:12;;;;;;;;;;;3.40;99.90;;;;;;5081123;28;19932;-79
2022/01/08 13:36:59;;;;;;;;;;;3.40;99.90;;;;;;5080644;28;19928;-79
2022/01/08 13:39:26;;;;;;;;;;;3.50;99.90;;;;;;5079917;28;20474;-79
2022/01/08 13:42:04;;;;;;;;;;;3.40;99.90;;;;;;5081538;28;19930;-78
2022/01/08 13:44:30;;;;;;;;;;;3.40;99.90;;;;;;5087923;28;19950;-77
2022/01/08 13:46:57;;;;;;;;;;;3.40;99.90;;;;;;5090221;28;19932;-77
2022/01/08 13:49:25;;;;;;;;;;;3.50;99.90;;;;;;5088540;28;20287;-78
2022/01/08 13:51:51;;;;;;;;;;;3.40;99.90;;;;;;5080096;28;19925;-80
2022/01/08 13:54:18;;;;;;;;;;;3.40;99.90;;;;;;5079672;28;19960;-79
2022/01/08 13:56:44;;;;;;;;;;;3.40;99.90;;;;;;5079881;28;20068;-79
2022/01/08 13:59:14;;;;;;;;;;;3.40;99.90;;;;;;5079049;28;20303;-79
2022/01/08 14:01:41;;;;;;;;;;;3.40;99.90;;;;;;5080299;28;19974;-79
2022/01/08 14:04:09;;;;;;;;;;;3.40;99.90;;;;;;5079435;28;19978;-79
2022/01/08 14:06:37;;;;;;;;;;;3.40;99.90;;;;;;5079698;28;19924;-79
2022/01/08 14:09:04;;;;;;;;;;;3.40;99.90;;;;;;5079611;28;19964;-79
2022/01/08 14:11:30;;;;;;;;;;;3.40;99.90;;;;;;5079158;28;20395;-79
2022/01/08 14:13:58;;;;;;;;;;;3.40;99.90;;;;;;5080557;28;19986;-78
2022/01/08 14:16:29;;;;;;;;;;;3.40;99.90;;;;;;5089514;28;19924;-79
2022/01/08 14:19:05;;;;;;;;;;;3.40;99.90;;;;;;5085025;28;19987;-78
2022/01/08 14:21:31;;;;;;;;;;;3.40;99.90;;;;;;5083516;28;20431;-79
2022/01/08 14:24:12;;;;;;;;;;;3.40;99.90;;;;;;5079953;28;19924;-79
2022/01/08 14:26:39;;;;;;;;;;;3.40;99.90;;;;;;5087284;28;19968;-78
2022/01/08 14:29:07;;;;;;;;;;;3.40;99.90;;;;;;5093685;28;19932;-78
2022/01/08 14:31:34;;;;;;;;;;;3.30;99.90;;;;;;5090005;28;19932;-79
2022/01/08 14:34:02;;;;;;;;;;;3.30;99.90;;;;;;5088052;28;19919;-78
2022/01/08 14:36:39;;;;;;;;;;;3.30;99.90;;;;;;5089359;28;19947;-79
2022/01/08 14:39:07;;;;;;;;;;;3.40;99.90;;;;;;5087912;28;19925;-79
2022/01/08 14:41:33;;;;;;;;;;;3.40;99.90;;;;;;5094185;28;19924;-79
2022/01/08 14:44:00;;;;;;;;;;;3.40;99.90;;;;;;5091518;28;19940;-80
2022/01/08 14:46:27;;;;;;;;;;;3.40;99.90;;;;;;5079976;28;19925;-80
2022/01/08 14:48:53;;;;;;;;;;;3.40;99.90;;;;;;5098420;23;21246;-81
2022/01/08 14:51:20;;;;;;;;;;;3.40;99.90;;;;;;5079925;28;19961;-80
2022/01/08 14:53:47;;;;;;;;;;;3.40;99.90;;;;;;5080288;28;20015;-79